Terminal Aerodrome Forecast
Issued by NWS

Home | Current Version | Previous Version | Text Only | Print | Product List | Glossary On
Versions: 1 2 3 4 5 6 7 8 9 10 11 12 13 14 15 16
000
FTUS43 KAPX 282326
TAFTVC
TAF
KTVC 282326Z 2900/2924 09007KT P6SM -SHRA OVC090
     FM290300 VRB03KT P6SM VCSH OVC070
     FM290600 09004KT P6SM BKN090
     FM290800 00000KT P6SM BKN090
     FM291200 04006KT P6SM BKN080
     FM291700 04006KT P6SM SCT080
     FM292100 01007KT P6SM SCT150=

USA.gov is the U.S. government's official web portal to all federal, state and local government web resources and services.